sensor_id;sensor_type;location;lat;lon;timestamp;P1;durP1;ratioP1;P2;durP2;ratioP2
68097;SDS011;54886;47.036;15.466;2022-09-01T00:01:25;7.00;;;4.57;;
68097;SDS011;54886;47.036;15.466;2022-09-01T00:03:52;8.82;;;4.95;;
68097;SDS011;54886;47.036;15.466;2022-09-01T00:08:54;6.78;;;4.50;;
68097;SDS011;54886;47.036;15.466;2022-09-01T00:11:21;8.25;;;4.60;;
68097;SDS011;54886;47.036;15.466;2022-09-01T00:13:49;7.57;;;4.82;;
68097;SDS011;54886;47.036;15.466;2022-09-01T00:16:15;7.00;;;4.32;;
68097;SDS011;54886;47.036;15.466;2022-09-01T00:18:42;6.70;;;3.88;;
68097;SDS011;54886;47.036;15.466;2022-09-01T00:21:10;7.65;;;5.10;;
68097;SDS011;54886;47.036;15.466;2022-09-01T00:23:38;6.05;;;4.28;;
68097;SDS011;54886;47.036;15.466;2022-09-01T00:26:03;16.25;;;4.30;;
68097;SDS011;54886;47.036;15.466;2022-09-01T00:28:31;8.52;;;4.97;;
68097;SDS011;54886;47.036;15.466;2022-09-01T00:30:58;7.03;;;4.43;;
68097;SDS011;54886;47.036;15.466;2022-09-01T00:33:23;6.70;;;3.88;;
68097;SDS011;54886;47.036;15.466;2022-09-01T00:35:49;7.50;;;4.40;;
68097;SDS011;54886;47.036;15.466;2022-09-01T00:38:14;7.20;;;4.30;;
68097;SDS011;54886;47.036;15.466;2022-09-01T00:40:40;6.82;;;4.25;;
68097;SDS011;54886;47.036;15.466;2022-09-01T00:43:16;6.82;;;4.50;;
68097;SDS011;54886;47.036;15.466;2022-09-01T00:45:45;8.02;;;4.30;;
68097;SDS011;54886;47.036;15.466;2022-09-01T00:48:10;8.35;;;4.20;;
68097;SDS011;54886;47.036;15.466;2022-09-01T00:50:38;6.32;;;4.15;;
68097;SDS011;54886;47.036;15.466;2022-09-01T00:53:03;7.03;;;4.57;;
68097;SDS011;54886;47.036;15.466;2022-09-01T00:55:32;7.88;;;4.57;;
68097;SDS011;54886;47.036;15.466;2022-09-01T00:58:00;6.80;;;4.55;;
68097;SDS011;54886;47.036;15.466;2022-09-01T01:00:29;8.32;;;4.97;;
68097;SDS011;54886;47.036;15.466;2022-09-01T01:02:56;7.07;;;4.72;;
68097;SDS011;54886;47.036;15.466;2022-09-01T01:05:23;8.02;;;4.97;;
68097;SDS011;54886;47.036;15.466;2022-09-01T01:07:53;6.97;;;4.60;;
68097;SDS011;54886;47.036;15.466;2022-09-01T01:10:20;7.00;;;4.78;;
68097;SDS011;54886;47.036;15.466;2022-09-01T01:12:47;8.82;;;4.90;;
68097;SDS011;54886;47.036;15.466;2022-09-01T01:15:16;7.22;;;4.82;;
68097;SDS011;54886;47.036;15.466;2022-09-01T01:17:42;8.30;;;4.93;;
68097;SDS011;54886;47.036;15.466;2022-09-01T01:20:08;9.00;;;4.47;;
68097;SDS011;54886;47.036;15.466;2022-09-01T01:23:09;9.45;;;4.50;;
68097;SDS011;54886;47.036;15.466;2022-09-01T01:25:51;7.07;;;4.70;;
68097;SDS011;54886;47.036;15.466;2022-09-01T01:28:24;8.63;;;5.13;;
68097;SDS011;54886;47.036;15.466;2022-09-01T01:30:58;7.30;;;4.65;;
68097;SDS011;54886;47.036;15.466;2022-09-01T01:33:33;6.63;;;4.40;;
68097;SDS011;54886;47.036;15.466;2022-09-01T01:36:04;8.93;;;4.80;;
68097;SDS011;54886;47.036;15.466;2022-09-01T01:38:31;9.20;;;5.07;;
68097;SDS011;54886;47.036;15.466;2022-09-01T01:40:59;9.55;;;5.07;;
68097;SDS011;54886;47.036;15.466;2022-09-01T01:43:26;7.95;;;4.88;;
68097;SDS011;54886;47.036;15.466;2022-09-01T01:45:53;9.50;;;4.90;;
68097;SDS011;54886;47.036;15.466;2022-09-01T01:48:23;9.18;;;4.75;;
68097;SDS011;54886;47.036;15.466;2022-09-01T01:50:50;7.13;;;4.07;;
68097;SDS011;54886;47.036;15.466;2022-09-01T01:53:17;8.45;;;5.18;;
68097;SDS011;54886;47.036;15.466;2022-09-01T01:55:44;7.22;;;4.75;;
68097;SDS011;54886;47.036;15.466;2022-09-01T01:58:14;7.38;;;4.40;;
68097;SDS011;54886;47.036;15.466;2022-09-01T02:00:43;6.57;;;4.85;;
68097;SDS011;54886;47.036;15.466;2022-09-01T02:03:12;6.22;;;4.30;;
68097;SDS011;54886;47.036;15.466;2022-09-01T02:05:44;7.45;;;4.13;;
68097;SDS011;54886;47.036;15.466;2022-09-01T02:10:39;6.43;;;4.43;;
68097;SDS011;54886;47.036;15.466;2022-09-01T02:13:07;6.63;;;4.43;;
68097;SDS011;54886;47.036;15.466;2022-09-01T02:15:38;6.90;;;4.80;;
68097;SDS011;54886;47.036;15.466;2022-09-01T02:18:32;7.45;;;4.80;;
68097;SDS011;54886;47.036;15.466;2022-09-01T02:21:00;6.50;;;4.25;;
68097;SDS011;54886;47.036;15.466;2022-09-01T02:23:27;6.93;;;4.47;;
68097;SDS011;54886;47.036;15.466;2022-09-01T02:25:54;6.13;;;4.45;;
68097;SDS011;54886;47.036;15.466;2022-09-01T02:28:24;7.10;;;4.57;;
68097;SDS011;54886;47.036;15.466;2022-09-01T02:30:52;8.32;;;4.82;;
68097;SDS011;54886;47.036;15.466;2022-09-01T02:33:24;6.05;;;4.45;;
68097;SDS011;54886;47.036;15.466;2022-09-01T02:36:00;7.38;;;4.78;;
68097;SDS011;54886;47.036;15.466;2022-09-01T02:38:28;6.57;;;4.68;;
68097;SDS011;54886;47.036;15.466;2022-09-01T02:40:58;7.32;;;4.93;;
68097;SDS011;54886;47.036;15.466;2022-09-01T02:43:26;7.47;;;4.80;;
68097;SDS011;54886;47.036;15.466;2022-09-01T02:45:54;7.90;;;5.18;;
68097;SDS011;54886;47.036;15.466;2022-09-01T02:48:24;7.57;;;5.13;;
68097;SDS011;54886;47.036;15.466;2022-09-01T02:50:53;6.95;;;4.75;;
68097;SDS011;54886;47.036;15.466;2022-09-01T02:53:21;8.32;;;4.70;;
68097;SDS011;54886;47.036;15.466;2022-09-01T02:55:47;7.35;;;4.68;;
68097;SDS011;54886;47.036;15.466;2022-09-01T02:58:12;7.28;;;5.07;;
68097;SDS011;54886;47.036;15.466;2022-09-01T03:00:43;7.10;;;4.93;;
68097;SDS011;54886;47.036;15.466;2022-09-01T03:03:09;7.28;;;4.75;;
68097;SDS011;54886;47.036;15.466;2022-09-01T03:05:41;8.05;;;4.40;;
68097;SDS011;54886;47.036;15.466;2022-09-01T03:08:07;7.40;;;4.55;;
68097;SDS011;54886;47.036;15.466;2022-09-01T03:10:37;7.70;;;4.57;;
68097;SDS011;54886;47.036;15.466;2022-09-01T03:13:07;5.68;;;4.15;;
68097;SDS011;54886;47.036;15.466;2022-09-01T03:15:36;8.02;;;4.93;;
68097;SDS011;54886;47.036;15.466;2022-09-01T03:18:03;5.95;;;4.00;;
68097;SDS011;54886;47.036;15.466;2022-09-01T03:20:30;7.50;;;4.60;;
68097;SDS011;54886;47.036;15.466;2022-09-01T03:23:02;7.07;;;4.80;;
68097;SDS011;54886;47.036;15.466;2022-09-01T03:25:29;6.43;;;4.45;;
68097;SDS011;54886;47.036;15.466;2022-09-01T03:27:56;6.53;;;4.40;;
68097;SDS011;54886;47.036;15.466;2022-09-01T03:30:23;7.57;;;5.25;;
68097;SDS011;54886;47.036;15.466;2022-09-01T03:32:50;7.32;;;5.10;;
68097;SDS011;54886;47.036;15.466;2022-09-01T03:35:16;9.02;;;5.40;;
68097;SDS011;54886;47.036;15.466;2022-09-01T03:37:42;6.97;;;4.80;;
68097;SDS011;54886;47.036;15.466;2022-09-01T03:40:09;12.18;;;5.45;;
68097;SDS011;54886;47.036;15.466;2022-09-01T03:42:36;8.27;;;5.05;;
68097;SDS011;54886;47.036;15.466;2022-09-01T03:45:03;6.68;;;4.80;;
68097;SDS011;54886;47.036;15.466;2022-09-01T03:47:34;6.85;;;4.90;;
68097;SDS011;54886;47.036;15.466;2022-09-01T03:50:05;7.32;;;5.28;;
68097;SDS011;54886;47.036;15.466;2022-09-01T03:52:37;9.57;;;4.90;;
68097;SDS011;54886;47.036;15.466;2022-09-01T03:55:04;7.95;;;5.25;;
68097;SDS011;54886;47.036;15.466;2022-09-01T03:57:30;10.20;;;5.05;;
68097;SDS011;54886;47.036;15.466;2022-09-01T03:59:55;8.18;;;5.00;;
68097;SDS011;54886;47.036;15.466;2022-09-01T04:02:21;7.20;;;5.18;;
68097;SDS011;54886;47.036;15.466;2022-09-01T04:04:47;6.97;;;4.95;;
68097;SDS011;54886;47.036;15.466;2022-09-01T04:07:12;8.40;;;4.70;;
68097;SDS011;54886;47.036;15.466;2022-09-01T04:09:38;7.57;;;4.35;;
68097;SDS011;54886;47.036;15.466;2022-09-01T04:12:04;6.70;;;4.82;;
68097;SDS011;54886;47.036;15.466;2022-09-01T04:14:39;8.60;;;5.30;;
68097;SDS011;54886;47.036;15.466;2022-09-01T04:17:05;7.20;;;4.75;;
68097;SDS011;54886;47.036;15.466;2022-09-01T04:19:49;10.27;;;5.30;;
68097;SDS011;54886;47.036;15.466;2022-09-01T04:22:15;7.45;;;5.18;;
68097;SDS011;54886;47.036;15.466;2022-09-01T04:24:41;6.28;;;4.57;;
68097;SDS011;54886;47.036;15.466;2022-09-01T04:27:09;8.02;;;4.55;;
68097;SDS011;54886;47.036;15.466;2022-09-01T04:29:36;7.47;;;4.68;;
68097;SDS011;54886;47.036;15.466;2022-09-01T04:32:03;8.95;;;4.65;;
68097;SDS011;54886;47.036;15.466;2022-09-01T04:34:32;9.07;;;4.80;;
68097;SDS011;54886;47.036;15.466;2022-09-01T04:37:12;8.73;;;4.85;;
68097;SDS011;54886;47.036;15.466;2022-09-01T04:39:42;7.13;;;4.68;;
68097;SDS011;54886;47.036;15.466;2022-09-01T04:42:16;6.30;;;4.55;;
68097;SDS011;54886;47.036;15.466;2022-09-01T04:44:42;6.63;;;4.78;;
68097;SDS011;54886;47.036;15.466;2022-09-01T04:47:10;8.60;;;5.10;;
68097;SDS011;54886;47.036;15.466;2022-09-01T04:49:54;6.53;;;4.45;;
68097;SDS011;54886;47.036;15.466;2022-09-01T04:52:24;7.72;;;4.28;;
68097;SDS011;54886;47.036;15.466;2022-09-01T04:54:50;7.10;;;3.97;;
68097;SDS011;54886;47.036;15.466;2022-09-01T04:57:16;7.30;;;4.65;;
68097;SDS011;54886;47.036;15.466;2022-09-01T04:59:42;10.18;;;5.28;;
68097;SDS011;54886;47.036;15.466;2022-09-01T05:02:08;8.52;;;5.03;;
68097;SDS011;54886;47.036;15.466;2022-09-01T05:04:34;6.13;;;4.60;;
68097;SDS011;54886;47.036;15.466;2022-09-01T05:07:00;8.02;;;5.05;;
68097;SDS011;54886;47.036;15.466;2022-09-01T05:09:28;7.38;;;4.70;;
68097;SDS011;54886;47.036;15.466;2022-09-01T05:11:56;11.23;;;5.40;;
68097;SDS011;54886;47.036;15.466;2022-09-01T05:14:23;9.30;;;5.30;;
68097;SDS011;54886;47.036;15.466;2022-09-01T05:16:49;8.10;;;4.90;;
68097;SDS011;54886;47.036;15.466;2022-09-01T05:19:20;8.32;;;5.03;;
68097;SDS011;54886;47.036;15.466;2022-09-01T05:21:48;7.18;;;5.00;;
68097;SDS011;54886;47.036;15.466;2022-09-01T05:24:16;10.43;;;5.07;;
68097;SDS011;54886;47.036;15.466;2022-09-01T05:26:43;7.63;;;5.18;;
68097;SDS011;54886;47.036;15.466;2022-09-01T05:29:11;7.80;;;5.30;;
68097;SDS011;54886;47.036;15.466;2022-09-01T05:31:40;7.82;;;5.18;;
68097;SDS011;54886;47.036;15.466;2022-09-01T05:34:07;9.80;;;5.75;;
68097;SDS011;54886;47.036;15.466;2022-09-01T05:36:34;7.03;;;4.97;;
68097;SDS011;54886;47.036;15.466;2022-09-01T05:41:28;12.13;;;5.28;;
68097;SDS011;54886;47.036;15.466;2022-09-01T05:43:54;10.75;;;5.47;;
68097;SDS011;54886;47.036;15.466;2022-09-01T05:46:22;7.80;;;5.07;;
68097;SDS011;54886;47.036;15.466;2022-09-01T05:48:51;6.88;;;4.68;;
68097;SDS011;54886;47.036;15.466;2022-09-01T05:51:21;8.15;;;4.95;;
68097;SDS011;54886;47.036;15.466;2022-09-01T05:53:51;7.95;;;5.15;;
68097;SDS011;54886;47.036;15.466;2022-09-01T05:56:22;7.63;;;4.80;;
68097;SDS011;54886;47.036;15.466;2022-09-01T05:58:49;8.55;;;4.65;;
68097;SDS011;54886;47.036;15.466;2022-09-01T06:01:15;5.97;;;4.25;;
68097;SDS011;54886;47.036;15.466;2022-09-01T06:03:49;7.20;;;4.55;;
68097;SDS011;54886;47.036;15.466;2022-09-01T06:06:19;6.88;;;4.50;;
68097;SDS011;54886;47.036;15.466;2022-09-01T06:08:47;6.93;;;4.50;;
68097;SDS011;54886;47.036;15.466;2022-09-01T06:11:16;8.35;;;4.53;;
68097;SDS011;54886;47.036;15.466;2022-09-01T06:13:43;5.67;;;4.10;;
68097;SDS011;54886;47.036;15.466;2022-09-01T06:16:12;7.05;;;4.10;;
68097;SDS011;54886;47.036;15.466;2022-09-01T06:18:42;7.88;;;4.15;;
68097;SDS011;54886;47.036;15.466;2022-09-01T06:21:08;5.93;;;4.07;;
68097;SDS011;54886;47.036;15.466;2022-09-01T06:23:39;6.53;;;4.10;;
68097;SDS011;54886;47.036;15.466;2022-09-01T06:26:06;9.27;;;4.03;;
68097;SDS011;54886;47.036;15.466;2022-09-01T06:28:39;6.20;;;3.97;;
68097;SDS011;54886;47.036;15.466;2022-09-01T06:31:05;7.00;;;3.80;;
68097;SDS011;54886;47.036;15.466;2022-09-01T06:33:31;7.57;;;4.03;;
68097;SDS011;54886;47.036;15.466;2022-09-01T06:35:57;6.63;;;3.90;;
68097;SDS011;54886;47.036;15.466;2022-09-01T06:38:26;8.45;;;3.90;;
68097;SDS011;54886;47.036;15.466;2022-09-01T06:40:58;5.60;;;3.80;;
68097;SDS011;54886;47.036;15.466;2022-09-01T06:43:25;7.68;;;3.97;;
68097;SDS011;54886;47.036;15.466;2022-09-01T06:45:54;7.22;;;3.70;;
68097;SDS011;54886;47.036;15.466;2022-09-01T06:48:19;6.95;;;4.10;;
68097;SDS011;54886;47.036;15.466;2022-09-01T06:50:46;6.60;;;3.95;;
68097;SDS011;54886;47.036;15.466;2022-09-01T06:53:11;6.07;;;3.92;;
68097;SDS011;54886;47.036;15.466;2022-09-01T06:55:42;6.75;;;4.43;;
68097;SDS011;54886;47.036;15.466;2022-09-01T06:58:12;8.63;;;3.80;;
68097;SDS011;54886;47.036;15.466;2022-09-01T07:00:40;7.68;;;4.00;;
68097;SDS011;54886;47.036;15.466;2022-09-01T07:03:07;7.88;;;4.43;;
68097;SDS011;54886;47.036;15.466;2022-09-01T07:05:42;9.02;;;3.90;;
68097;SDS011;54886;47.036;15.466;2022-09-01T07:08:10;6.22;;;4.15;;
68097;SDS011;54886;47.036;15.466;2022-09-01T07:10:45;7.07;;;4.15;;
68097;SDS011;54886;47.036;15.466;2022-09-01T07:13:14;5.38;;;3.65;;
68097;SDS011;54886;47.036;15.466;2022-09-01T07:15:50;6.18;;;3.90;;
68097;SDS011;54886;47.036;15.466;2022-09-01T07:18:22;7.47;;;4.10;;
68097;SDS011;54886;47.036;15.466;2022-09-01T07:20:49;5.78;;;3.60;;
68097;SDS011;54886;47.036;15.466;2022-09-01T07:23:16;6.13;;;3.63;;
68097;SDS011;54886;47.036;15.466;2022-09-01T07:28:11;4.72;;;3.53;;
68097;SDS011;54886;47.036;15.466;2022-09-01T07:30:39;6.78;;;3.67;;
68097;SDS011;54886;47.036;15.466;2022-09-01T07:33:07;8.02;;;3.80;;
68097;SDS011;54886;47.036;15.466;2022-09-01T07:35:36;6.95;;;3.72;;
68097;SDS011;54886;47.036;15.466;2022-09-01T07:38:02;4.57;;;3.43;;
68097;SDS011;54886;47.036;15.466;2022-09-01T07:40:37;6.00;;;3.45;;
68097;SDS011;54886;47.036;15.466;2022-09-01T07:43:04;5.55;;;3.72;;
68097;SDS011;54886;47.036;15.466;2022-09-01T07:45:33;7.43;;;3.45;;
68097;SDS011;54886;47.036;15.466;2022-09-01T07:48:01;5.47;;;3.55;;
68097;SDS011;54886;47.036;15.466;2022-09-01T07:50:30;7.82;;;3.72;;
68097;SDS011;54886;47.036;15.466;2022-09-01T07:52:59;6.75;;;3.30;;
68097;SDS011;54886;47.036;15.466;2022-09-01T07:55:25;5.93;;;3.55;;
68097;SDS011;54886;47.036;15.466;2022-09-01T07:57:52;6.55;;;3.63;;
68097;SDS011;54886;47.036;15.466;2022-09-01T08:00:18;4.65;;;3.17;;
68097;SDS011;54886;47.036;15.466;2022-09-01T08:02:46;5.65;;;2.92;;
68097;SDS011;54886;47.036;15.466;2022-09-01T08:05:13;4.10;;;2.67;;
68097;SDS011;54886;47.036;15.466;2022-09-01T08:07:42;5.20;;;2.90;;
68097;SDS011;54886;47.036;15.466;2022-09-01T08:10:08;6.30;;;2.95;;
68097;SDS011;54886;47.036;15.466;2022-09-01T08:12:34;3.83;;;2.50;;
68097;SDS011;54886;47.036;15.466;2022-09-01T08:15:04;6.75;;;3.00;;
68097;SDS011;54886;47.036;15.466;2022-09-01T08:17:31;3.92;;;2.67;;
68097;SDS011;54886;47.036;15.466;2022-09-01T08:19:56;3.75;;;2.50;;
68097;SDS011;54886;47.036;15.466;2022-09-01T08:22:22;4.30;;;2.65;;
68097;SDS011;54886;47.036;15.466;2022-09-01T08:24:49;3.80;;;2.60;;
68097;SDS011;54886;47.036;15.466;2022-09-01T08:27:16;4.37;;;2.90;;
68097;SDS011;54886;47.036;15.466;2022-09-01T08:29:41;5.43;;;2.60;;
68097;SDS011;54886;47.036;15.466;2022-09-01T08:32:07;4.00;;;2.30;;
68097;SDS011;54886;47.036;15.466;2022-09-01T08:34:33;5.80;;;2.63;;
68097;SDS011;54886;47.036;15.466;2022-09-01T08:36:59;6.43;;;2.63;;
68097;SDS011;54886;47.036;15.466;2022-09-01T08:39:24;4.57;;;2.50;;
68097;SDS011;54886;47.036;15.466;2022-09-01T08:47:09;4.45;;;2.60;;
68097;SDS011;54886;47.036;15.466;2022-09-01T08:49:38;3.08;;;2.33;;
68097;SDS011;54886;47.036;15.466;2022-09-01T08:54:48;3.03;;;2.40;;
68097;SDS011;54886;47.036;15.466;2022-09-01T08:57:40;2.72;;;2.42;;
68097;SDS011;54886;47.036;15.466;2022-09-01T09:00:09;3.92;;;2.38;;
68097;SDS011;54886;47.036;15.466;2022-09-01T09:10:43;3.53;;;2.53;;
68097;SDS011;54886;47.036;15.466;2022-09-01T09:16:23;3.33;;;2.40;;
68097;SDS011;54886;47.036;15.466;2022-09-01T09:19:04;5.38;;;2.88;;
68097;SDS011;54886;47.036;15.466;2022-09-01T09:21:36;3.40;;;2.30;;
68097;SDS011;54886;47.036;15.466;2022-09-01T09:26:34;3.88;;;2.60;;
68097;SDS011;54886;47.036;15.466;2022-09-01T09:29:00;4.65;;;2.20;;
68097;SDS011;54886;47.036;15.466;2022-09-01T09:33:54;3.20;;;2.35;;
68097;SDS011;54886;47.036;15.466;2022-09-01T09:36:20;4.07;;;2.55;;
68097;SDS011;54886;47.036;15.466;2022-09-01T09:39:10;4.90;;;2.33;;
68097;SDS011;54886;47.036;15.466;2022-09-01T09:41:41;6.40;;;2.50;;
68097;SDS011;54886;47.036;15.466;2022-09-01T09:44:27;3.78;;;2.70;;
68097;SDS011;54886;47.036;15.466;2022-09-01T09:46:55;2.85;;;2.25;;
68097;SDS011;54886;47.036;15.466;2022-09-01T09:49:29;3.38;;;2.25;;
68097;SDS011;54886;47.036;15.466;2022-09-01T09:51:57;6.18;;;2.42;;
68097;SDS011;54886;47.036;15.466;2022-09-01T09:54:39;3.60;;;2.10;;
68097;SDS011;54886;47.036;15.466;2022-09-01T09:57:22;2.63;;;2.22;;
68097;SDS011;54886;47.036;15.466;2022-09-01T09:59:53;3.83;;;2.10;;
68097;SDS011;54886;47.036;15.466;2022-09-01T10:02:35;4.40;;;2.28;;
68097;SDS011;54886;47.036;15.466;2022-09-01T10:07:52;4.18;;;2.42;;
68097;SDS011;54886;47.036;15.466;2022-09-01T10:10:28;3.83;;;2.47;;
68097;SDS011;54886;47.036;15.466;2022-09-01T10:13:02;3.17;;;2.40;;
68097;SDS011;54886;47.036;15.466;2022-09-01T10:15:31;2.72;;;2.38;;
68097;SDS011;54886;47.036;15.466;2022-09-01T10:17:59;4.87;;;2.50;;
68097;SDS011;54886;47.036;15.466;2022-09-01T10:20:32;3.72;;;2.40;;
68097;SDS011;54886;47.036;15.466;2022-09-01T10:23:01;3.90;;;2.30;;
68097;SDS011;54886;47.036;15.466;2022-09-01T10:25:27;4.47;;;2.33;;
68097;SDS011;54886;47.036;15.466;2022-09-01T10:30:43;3.05;;;2.15;;
68097;SDS011;54886;47.036;15.466;2022-09-01T10:33:14;4.15;;;2.30;;
68097;SDS011;54886;47.036;15.466;2022-09-01T10:35:42;3.30;;;2.30;;
68097;SDS011;54886;47.036;15.466;2022-09-01T10:38:18;4.35;;;2.05;;
68097;SDS011;54886;47.036;15.466;2022-09-01T10:40:50;3.90;;;2.22;;
68097;SDS011;54886;47.036;15.466;2022-09-01T10:45:57;3.17;;;2.65;;
68097;SDS011;54886;47.036;15.466;2022-09-01T10:48:30;3.85;;;2.72;;
68097;SDS011;54886;47.036;15.466;2022-09-01T10:56:35;5.40;;;2.70;;
68097;SDS011;54886;47.036;15.466;2022-09-01T11:04:08;5.28;;;2.80;;
68097;SDS011;54886;47.036;15.466;2022-09-01T11:09:06;4.60;;;3.08;;
68097;SDS011;54886;47.036;15.466;2022-09-01T11:11:48;5.50;;;2.85;;
68097;SDS011;54886;47.036;15.466;2022-09-01T11:14:24;4.35;;;2.80;;
68097;SDS011;54886;47.036;15.466;2022-09-01T11:17:10;4.82;;;2.97;;
68097;SDS011;54886;47.036;15.466;2022-09-01T11:19:53;5.68;;;2.80;;
68097;SDS011;54886;47.036;15.466;2022-09-01T11:41:33;3.80;;;2.47;;
68097;SDS011;54886;47.036;15.466;2022-09-01T11:47:17;5.13;;;2.53;;
68097;SDS011;54886;47.036;15.466;2022-09-01T11:49:58;3.33;;;2.38;;
68097;SDS011;54886;47.036;15.466;2022-09-01T11:52:33;5.77;;;2.43;;
68097;SDS011;54886;47.036;15.466;2022-09-01T11:55:00;4.93;;;2.40;;
68097;SDS011;54886;47.036;15.466;2022-09-01T11:57:28;4.00;;;2.30;;
68097;SDS011;54886;47.036;15.466;2022-09-01T11:59:59;3.28;;;2.15;;
68097;SDS011;54886;47.036;15.466;2022-09-01T12:02:29;4.55;;;2.20;;
68097;SDS011;54886;47.036;15.466;2022-09-01T12:04:57;4.50;;;2.17;;
68097;SDS011;54886;47.036;15.466;2022-09-01T12:07:25;3.27;;;2.30;;
68097;SDS011;54886;47.036;15.466;2022-09-01T12:09:56;4.25;;;2.20;;
68097;SDS011;54886;47.036;15.466;2022-09-01T12:12:35;5.32;;;2.30;;
68097;SDS011;54886;47.036;15.466;2022-09-01T12:17:51;4.57;;;2.20;;
68097;SDS011;54886;47.036;15.466;2022-09-01T12:20:18;3.87;;;2.47;;
68097;SDS011;54886;47.036;15.466;2022-09-01T12:22:52;7.47;;;2.40;;
68097;SDS011;54886;47.036;15.466;2022-09-01T12:25:19;3.80;;;2.38;;
68097;SDS011;54886;47.036;15.466;2022-09-01T12:27:47;2.00;;;1.90;;
68097;SDS011;54886;47.036;15.466;2022-09-01T12:30:13;2.45;;;1.98;;
68097;SDS011;54886;47.036;15.466;2022-09-01T12:32:39;4.70;;;2.17;;
68097;SDS011;54886;47.036;15.466;2022-09-01T12:35:11;3.03;;;2.22;;
68097;SDS011;54886;47.036;15.466;2022-09-01T12:37:42;2.53;;;2.10;;
68097;SDS011;54886;47.036;15.466;2022-09-01T12:40:20;3.40;;;2.05;;
68097;SDS011;54886;47.036;15.466;2022-09-01T12:42:56;5.25;;;2.10;;
68097;SDS011;54886;47.036;15.466;2022-09-01T12:45:35;2.95;;;2.00;;
68097;SDS011;54886;47.036;15.466;2022-09-01T12:48:22;3.17;;;2.10;;
68097;SDS011;54886;47.036;15.466;2022-09-01T12:51:22;2.85;;;1.90;;
68097;SDS011;54886;47.036;15.466;2022-09-01T12:53:50;2.80;;;2.15;;
68097;SDS011;54886;47.036;15.466;2022-09-01T12:56:19;3.28;;;2.20;;
68097;SDS011;54886;47.036;15.466;2022-09-01T12:59:04;2.88;;;2.05;;
68097;SDS011;54886;47.036;15.466;2022-09-01T13:01:33;2.60;;;2.00;;
68097;SDS011;54886;47.036;15.466;2022-09-01T13:04:09;3.00;;;2.00;;
68097;SDS011;54886;47.036;15.466;2022-09-01T13:06:47;3.10;;;1.90;;
68097;SDS011;54886;47.036;15.466;2022-09-01T13:09:13;4.28;;;2.00;;
68097;SDS011;54886;47.036;15.466;2022-09-01T13:11:38;5.07;;;1.98;;
68097;SDS011;54886;47.036;15.466;2022-09-01T13:14:06;3.17;;;1.85;;
68097;SDS011;54886;47.036;15.466;2022-09-01T13:16:32;3.33;;;1.95;;
68097;SDS011;54886;47.036;15.466;2022-09-01T13:18:59;3.95;;;1.85;;
68097;SDS011;54886;47.036;15.466;2022-09-01T13:21:25;3.03;;;1.80;;
68097;SDS011;54886;47.036;15.466;2022-09-01T13:23:51;1.95;;;1.77;;
68097;SDS011;54886;47.036;15.466;2022-09-01T13:26:17;4.47;;;1.88;;
68097;SDS011;54886;47.036;15.466;2022-09-01T13:28:43;3.50;;;1.85;;
68097;SDS011;54886;47.036;15.466;2022-09-01T13:31:09;4.13;;;1.70;;
68097;SDS011;54886;47.036;15.466;2022-09-01T13:33:36;2.75;;;1.80;;
68097;SDS011;54886;47.036;15.466;2022-09-01T13:36:02;2.95;;;1.83;;
68097;SDS011;54886;47.036;15.466;2022-09-01T13:38:28;3.80;;;1.90;;
68097;SDS011;54886;47.036;15.466;2022-09-01T13:40:55;3.20;;;1.80;;
68097;SDS011;54886;47.036;15.466;2022-09-01T13:43:21;1.95;;;1.73;;
68097;SDS011;54886;47.036;15.466;2022-09-01T13:45:47;4.95;;;1.80;;
68097;SDS011;54886;47.036;15.466;2022-09-01T13:48:15;4.05;;;1.80;;
68097;SDS011;54886;47.036;15.466;2022-09-01T13:50:41;4.13;;;2.03;;
68097;SDS011;54886;47.036;15.466;2022-09-01T13:53:07;2.40;;;1.63;;
68097;SDS011;54886;47.036;15.466;2022-09-01T13:55:34;6.95;;;2.10;;
68097;SDS011;54886;47.036;15.466;2022-09-01T13:58:02;2.72;;;1.80;;
68097;SDS011;54886;47.036;15.466;2022-09-01T14:00:29;2.08;;;1.73;;
68097;SDS011;54886;47.036;15.466;2022-09-01T14:02:58;3.08;;;1.90;;
68097;SDS011;54886;47.036;15.466;2022-09-01T14:05:31;2.13;;;1.80;;
68097;SDS011;54886;47.036;15.466;2022-09-01T14:07:59;2.97;;;1.70;;
68097;SDS011;54886;47.036;15.466;2022-09-01T14:10:26;4.50;;;1.77;;
68097;SDS011;54886;47.036;15.466;2022-09-01T14:12:53;3.47;;;1.90;;
68097;SDS011;54886;47.036;15.466;2022-09-01T14:15:19;1.80;;;1.70;;
68097;SDS011;54886;47.036;15.466;2022-09-01T14:17:46;3.00;;;1.70;;
68097;SDS011;54886;47.036;15.466;2022-09-01T14:20:24;2.67;;;1.88;;
68097;SDS011;54886;47.036;15.466;2022-09-01T14:22:52;4.60;;;2.25;;
68097;SDS011;54886;47.036;15.466;2022-09-01T14:25:19;5.18;;;3.08;;
68097;SDS011;54886;47.036;15.466;2022-09-01T14:27:45;3.70;;;2.45;;
68097;SDS011;54886;47.036;15.466;2022-09-01T14:30:14;4.40;;;2.10;;
68097;SDS011;54886;47.036;15.466;2022-09-01T14:32:44;3.83;;;2.03;;
68097;SDS011;54886;47.036;15.466;2022-09-01T14:35:10;3.10;;;1.70;;
68097;SDS011;54886;47.036;15.466;2022-09-01T14:37:36;2.25;;;1.95;;
68097;SDS011;54886;47.036;15.466;2022-09-01T14:40:03;2.67;;;1.88;;
68097;SDS011;54886;47.036;15.466;2022-09-01T14:42:30;2.65;;;1.80;;
68097;SDS011;54886;47.036;15.466;2022-09-01T14:44:56;4.35;;;2.00;;
68097;SDS011;54886;47.036;15.466;2022-09-01T14:47:21;4.47;;;1.98;;
68097;SDS011;54886;47.036;15.466;2022-09-01T14:49:49;2.92;;;1.90;;
68097;SDS011;54886;47.036;15.466;2022-09-01T14:52:16;3.78;;;1.73;;
68097;SDS011;54886;47.036;15.466;2022-09-01T14:54:42;3.20;;;1.70;;
68097;SDS011;54886;47.036;15.466;2022-09-01T14:57:08;2.83;;;1.92;;
68097;SDS011;54886;47.036;15.466;2022-09-01T14:59:34;2.45;;;1.70;;
68097;SDS011;54886;47.036;15.466;2022-09-01T15:02:00;3.95;;;2.13;;
68097;SDS011;54886;47.036;15.466;2022-09-01T15:04:26;3.45;;;2.00;;
68097;SDS011;54886;47.036;15.466;2022-09-01T15:06:52;5.05;;;2.17;;
68097;SDS011;54886;47.036;15.466;2022-09-01T15:09:17;4.90;;;1.67;;
68097;SDS011;54886;47.036;15.466;2022-09-01T15:11:43;3.33;;;1.88;;
68097;SDS011;54886;47.036;15.466;2022-09-01T15:14:09;3.40;;;1.90;;
68097;SDS011;54886;47.036;15.466;2022-09-01T15:16:34;4.15;;;2.00;;
68097;SDS011;54886;47.036;15.466;2022-09-01T15:19:08;2.80;;;1.90;;
68097;SDS011;54886;47.036;15.466;2022-09-01T15:21:35;9.70;;;6.82;;
68097;SDS011;54886;47.036;15.466;2022-09-01T15:24:02;7.05;;;4.55;;
68097;SDS011;54886;47.036;15.466;2022-09-01T15:26:28;5.28;;;2.97;;
68097;SDS011;54886;47.036;15.466;2022-09-01T15:28:55;6.05;;;2.40;;
68097;SDS011;54886;47.036;15.466;2022-09-01T15:31:24;6.63;;;2.80;;
68097;SDS011;54886;47.036;15.466;2022-09-01T15:33:53;4.00;;;2.42;;
68097;SDS011;54886;47.036;15.466;2022-09-01T15:36:21;5.80;;;2.50;;
68097;SDS011;54886;47.036;15.466;2022-09-01T15:38:48;4.47;;;2.28;;
68097;SDS011;54886;47.036;15.466;2022-09-01T15:41:17;6.55;;;2.45;;
68097;SDS011;54886;47.036;15.466;2022-09-01T15:43:45;5.65;;;2.40;;
68097;SDS011;54886;47.036;15.466;2022-09-01T15:46:10;7.60;;;2.95;;
68097;SDS011;54886;47.036;15.466;2022-09-01T15:48:38;4.30;;;2.40;;
68097;SDS011;54886;47.036;15.466;2022-09-01T15:53:52;7.10;;;2.58;;
68097;SDS011;54886;47.036;15.466;2022-09-01T15:56:19;5.72;;;2.35;;
68097;SDS011;54886;47.036;15.466;2022-09-01T15:58:45;5.15;;;2.42;;
68097;SDS011;54886;47.036;15.466;2022-09-01T16:01:12;4.72;;;2.70;;
68097;SDS011;54886;47.036;15.466;2022-09-01T16:03:38;5.15;;;2.60;;
68097;SDS011;54886;47.036;15.466;2022-09-01T16:06:03;7.00;;;2.58;;
68097;SDS011;54886;47.036;15.466;2022-09-01T16:08:30;7.18;;;2.83;;